Time;durP1;ratioP1;P1;durP2;ratioP2;P2;SDS_P1;SDS_P2;PMS_P1;PMS_P2;Temp;Humidity;BMP_temperature;BMP_pressure;BME280_temperature;BME280_humidity;BME280_pressure;Samples;Min_cycle;Max_cycle;Signal;HPM_P1;HPM_P2
2022/03/17 00:01:23;;;;;;;14.15;4.70;;;9.00;99.90;;;;;;5036087;28;20050;-72
2022/03/17 00:03:49;;;;;;;14.10;5.10;;;9.00;99.90;;;;;;5046946;28;20033;-72
2022/03/17 00:06:15;;;;;;;15.02;5.75;;;9.00;99.90;;;;;;5047129;28;20104;-73
2022/03/17 00:08:42;;;;;;;14.20;4.95;;;9.00;99.90;;;;;;5045526;28;20420;-71
2022/03/17 00:11:08;;;;;;;9.65;4.32;;;9.00;99.90;;;;;;5025822;28;20038;-71
2022/03/17 00:13:34;;;;;;;13.35;5.18;;;9.00;99.90;;;;;;5026970;28;20022;-71
2022/03/17 00:15:59;;;;;;;10.82;4.95;;;9.00;99.90;;;;;;5026822;28;20029;-72
2022/03/17 00:18:25;;;;;;;9.10;3.55;;;9.10;99.90;;;;;;5026885;28;20032;-72
2022/03/17 00:20:51;;;;;;;10.10;4.95;;;9.00;99.90;;;;;;5026191;28;20030;-72
2022/03/17 00:23:16;;;;;;;13.50;5.50;;;9.00;99.90;;;;;;5033352;28;20045;-73
2022/03/17 00:25:44;;;;;;;15.02;4.70;;;9.00;99.90;;;;;;5027147;28;20053;-72
2022/03/17 00:28:10;;;;;;;13.10;4.57;;;9.00;99.90;;;;;;5025670;28;20056;-72
2022/03/17 00:30:36;;;;;;;12.48;4.70;;;9.00;99.90;;;;;;5025385;28;20030;-72
2022/03/17 00:33:01;;;;;;;11.05;4.68;;;9.00;99.90;;;;;;5025486;28;20057;-72
2022/03/17 00:35:36;;;;;;;7.28;4.32;;;9.00;99.90;;;;;;5026859;28;20030;-71
2022/03/17 00:38:03;;;;;;;12.18;4.53;;;9.00;99.90;;;;;;5026396;28;20033;-72
2022/03/17 00:40:35;;;;;;;17.77;6.63;;;9.00;99.90;;;;;;5032761;28;20036;-72
2022/03/17 00:43:12;;;;;;;15.50;5.72;;;9.00;99.90;;;;;;5045522;28;20029;-74
2022/03/17 09:14:47;;;;;;;29.60;12.43;;;7.90;99.90;;;;;;5166379;23;20155;-73
2022/03/17 09:17:16;;;;;;;25.90;10.00;;;7.90;99.90;;;;;;5064486;28;20060;-72
2022/03/17 09:19:42;;;;;;;22.40;8.70;;;7.90;99.90;;;;;;5068316;28;20021;-73
2022/03/17 09:22:08;;;;;;;20.15;7.22;;;7.90;99.90;;;;;;5072284;28;20036;-71
2022/03/17 09:24:33;;;;;;;15.45;6.55;;;7.90;99.90;;;;;;5073059;28;20068;-71
2022/03/17 09:26:59;;;;;;;12.27;5.90;;;7.90;99.90;;;;;;5078843;28;20060;-72
2022/03/17 09:29:28;;;;;;;14.85;5.50;;;7.90;99.90;;;;;;5070458;28;20071;-72
2022/03/17 09:31:58;;;;;;;14.77;5.95;;;7.80;99.90;;;;;;5071535;28;20488;-72
2022/03/17 09:34:24;;;;;;;12.70;5.55;;;7.90;99.90;;;;;;5071631;28;20028;-72
2022/03/17 09:36:49;;;;;;;22.27;6.03;;;7.90;99.90;;;;;;5075902;28;20036;-71
2022/03/17 09:42:00;;;;;;;;;;;7.90;99.90;;;;;;5068455;28;20040;-73
2022/03/17 09:44:26;;;;;;;14.85;4.55;;;8.00;99.90;;;;;;5072284;28;19908;-72
2022/03/17 09:46:55;;;;;;;9.55;3.70;;;8.10;99.90;;;;;;5067286;28;20456;-73
2022/03/17 09:49:20;;;;;;;7.85;3.92;;;8.20;99.90;;;;;;5071599;28;20021;-72
2022/03/17 09:51:49;;;;;;;8.93;3.40;;;8.20;99.90;;;;;;5076875;28;20055;-72
2022/03/17 09:54:20;;;;;;;8.00;4.05;;;8.20;99.90;;;;;;5084117;28;20084;-72
2022/03/17 09:56:46;;;;;;;7.72;3.75;;;8.20;99.90;;;;;;5068803;28;20037;-71
2022/03/17 09:59:14;;;;;;;7.25;3.95;;;8.20;99.90;;;;;;5070390;28;20060;-74
2022/03/17 10:01:45;;;;;;;6.50;2.80;;;8.30;99.90;;;;;;5068313;28;20033;-74
2022/03/17 10:04:15;;;;;;;9.88;4.03;;;8.20;99.90;;;;;;5069379;28;20063;-72
2022/03/17 10:06:43;;;;;;;18.23;4.10;;;8.20;99.90;;;;;;5062766;28;20431;-73
2022/03/17 10:09:10;;;;;;;16.88;4.25;;;8.30;99.90;;;;;;5063909;28;20064;-74
2022/03/17 10:11:40;;;;;;;8.75;3.80;;;8.20;99.90;;;;;;5079418;28;20087;-71
2022/03/17 10:14:09;;;;;;;17.67;3.13;;;8.20;99.90;;;;;;5072160;28;20035;-72
2022/03/17 10:16:37;;;;;;;8.52;3.58;;;8.20;99.90;;;;;;5062263;28;20151;-71
2022/03/17 10:19:13;;;;;;;3.67;2.58;;;8.20;99.90;;;;;;5063420;28;20064;-70
2022/03/17 10:21:43;;;;;;;11.13;2.88;;;8.20;99.90;;;;;;5064137;28;20535;-71
2022/03/17 10:24:11;;;;;;;3.83;2.28;;;8.20;99.90;;;;;;5063301;28;20035;-71
2022/03/17 10:26:47;;;;;;;11.30;3.15;;;8.20;99.90;;;;;;5054252;28;20033;-72
2022/03/17 10:29:29;;;;;;;3.13;1.30;;;8.20;99.90;;;;;;5041195;28;20061;-73
2022/03/17 10:32:06;;;;;;;14.35;1.98;;;8.20;99.90;;;;;;5051209;28;20065;-71
2022/03/17 10:34:32;;;;;;;4.82;1.75;;;8.10;99.90;;;;;;5059109;28;20067;-70
2022/03/17 10:37:25;;;;;;;4.72;2.03;;;8.10;99.90;;;;;;5057768;28;20033;-71
2022/03/17 10:39:55;;;;;;;7.40;1.70;;;8.10;99.90;;;;;;5048628;28;20049;-72
2022/03/17 10:42:22;;;;;;;11.27;1.90;;;8.00;99.90;;;;;;5064062;28;20029;-71
2022/03/17 10:44:54;;;;;;;4.00;2.15;;;8.00;99.90;;;;;;5061033;28;20029;-71
2022/03/17 10:47:50;;;;;;;4.53;2.25;;;8.00;99.90;;;;;;5063658;28;20028;-70
2022/03/17 10:50:20;;;;;;;4.78;2.45;;;7.90;99.90;;;;;;5061803;28;20017;-72
2022/03/17 10:52:46;;;;;;;5.32;2.78;;;8.00;99.90;;;;;;5063215;28;20047;-71
2022/03/17 10:55:13;;;;;;;4.82;2.40;;;8.00;99.90;;;;;;5057588;28;20094;-73
2022/03/17 10:57:40;;;;;;;6.43;2.75;;;8.00;99.90;;;;;;5044792;28;20028;-74
2022/03/17 11:00:19;;;;;;;9.50;2.55;;;8.10;99.90;;;;;;5062725;28;20025;-69
2022/03/17 11:02:46;;;;;;;11.48;2.58;;;8.10;99.90;;;;;;5063217;28;20020;-72
2022/03/17 11:05:12;;;;;;;3.90;1.95;;;8.20;99.90;;;;;;5063782;28;20032;-72
2022/03/17 11:07:39;;;;;;;6.90;2.70;;;8.10;99.90;;;;;;5061846;28;20025;-70
2022/03/17 11:10:08;;;;;;;5.78;1.38;;;8.10;99.90;;;;;;5063064;28;20029;-70
2022/03/17 11:12:34;;;;;;;14.63;2.22;;;8.10;99.90;;;;;;5061677;28;20138;-71
2022/03/17 11:15:03;;;;;;;3.28;1.65;;;8.10;99.90;;;;;;5062504;28;20461;-72
2022/03/17 11:17:35;;;;;;;6.00;1.20;;;8.00;99.90;;;;;;5063691;28;20029;-70
2022/03/17 11:20:06;;;;;;;7.07;1.30;;;8.00;99.90;;;;;;5060875;28;20029;-72
2022/03/17 11:22:33;;;;;;;4.75;1.50;;;8.00;99.90;;;;;;5065377;28;20037;-70
2022/03/17 11:25:17;;;;;;;11.93;1.02;;;8.00;99.90;;;;;;5066301;28;20024;-70
2022/03/17 11:27:47;;;;;;;6.10;1.30;;;7.90;99.90;;;;;;5066746;28;20029;-72
2022/03/17 11:30:21;;;;;;;5.20;0.75;;;7.90;99.90;;;;;;5066905;28;20056;-74
2022/03/17 11:32:58;;;;;;;1.73;0.88;;;7.90;99.90;;;;;;5066811;28;20056;-71
2022/03/17 11:35:29;;;;;;;8.77;1.58;;;7.90;99.90;;;;;;5066540;28;20029;-73
2022/03/17 11:38:15;;;;;;;1.52;0.80;;;7.90;99.90;;;;;;5065359;28;20029;-71
2022/03/17 11:41:15;;;;;;;12.13;1.35;;;8.10;99.90;;;;;;5066409;28;20032;-69
2022/03/17 11:43:47;;;;;;;3.08;1.00;;;8.00;99.90;;;;;;5045570;28;20048;-70
2022/03/17 11:46:15;;;;;;;7.22;1.40;;;8.10;99.90;;;;;;5067165;28;20036;-72
2022/03/17 11:48:43;;;;;;;2.15;1.00;;;8.10;99.90;;;;;;5066279;28;20100;-71
2022/03/17 11:51:11;;;;;;;4.28;1.17;;;8.10;99.90;;;;;;5066081;28;20111;-73
2022/03/17 11:53:52;;;;;;;1.23;0.73;;;8.10;99.90;;;;;;5047368;28;20128;-73
2022/03/17 11:56:41;;;;;;;13.05;1.05;;;8.10;99.90;;;;;;5064198;28;20086;-72
2022/03/17 11:59:09;;;;;;;5.47;1.23;;;8.30;99.90;;;;;;5067322;28;20555;-71
2022/03/17 12:01:47;;;;;;;15.27;1.55;;;8.30;99.90;;;;;;5061247;28;20024;-71
2022/03/17 12:04:31;;;;;;;3.83;0.80;;;8.30;99.90;;;;;;5055975;28;20040;-69
2022/03/17 12:07:09;;;;;;;11.18;1.40;;;8.20;99.90;;;;;;5066657;28;20475;-72
2022/03/17 12:09:35;;;;;;;7.03;1.25;;;8.20;99.90;;;;;;5066339;28;20063;-70
2022/03/17 12:12:02;;;;;;;5.78;1.05;;;8.20;99.90;;;;;;5066259;28;20048;-71
2022/03/17 12:14:34;;;;;;;7.22;1.05;;;8.20;99.90;;;;;;5048298;28;20075;-72
2022/03/17 12:17:19;;;;;;;5.97;1.33;;;8.10;99.90;;;;;;5065584;28;20052;-70
2022/03/17 12:19:50;;;;;;;5.80;0.52;;;8.00;99.90;;;;;;5063738;28;20109;-72
2022/03/17 12:22:31;;;;;;;7.80;1.27;;;8.00;99.90;;;;;;5066343;28;20060;-73
2022/03/17 12:25:13;;;;;;;13.35;1.13;;;8.00;99.90;;;;;;5064448;28;20032;-72
2022/03/17 12:27:40;;;;;;;2.00;0.80;;;8.00;99.90;;;;;;5066221;28;20038;-72
2022/03/17 12:30:13;;;;;;;2.42;1.05;;;8.10;99.90;;;;;;5065723;28;20081;-71
2022/03/17 12:32:47;;;;;;;2.47;0.75;;;8.10;99.90;;;;;;5065833;28;20083;-71
2022/03/17 12:35:13;;;;;;;;;;;8.10;99.90;;;;;;5042853;28;20092;-73
2022/03/17 12:37:42;;;;;;;2.45;0.65;;;8.10;99.90;;;;;;5054492;28;19912;-72
2022/03/17 12:40:15;;;;;;;2.08;0.85;;;8.10;99.90;;;;;;5062731;28;20029;-73
2022/03/17 12:42:44;;;;;;;11.02;1.15;;;8.20;99.90;;;;;;5064307;28;20025;-71
2022/03/17 12:45:15;;;;;;;2.10;0.80;;;8.30;99.90;;;;;;5065375;28;20025;-71
2022/03/17 12:47:46;;;;;;;4.10;1.42;;;8.50;99.90;;;;;;5065012;28;20025;-70
2022/03/17 12:50:20;;;;;;;2.75;0.68;;;8.60;99.90;;;;;;5064772;28;20064;-73
2022/03/17 12:52:47;;;;;;;3.10;1.10;;;8.70;99.90;;;;;;5065046;28;20044;-70
2022/03/17 12:55:15;;;;;;;8.07;1.30;;;8.70;99.90;;;;;;5065853;28;20108;-72
2022/03/17 12:57:42;;;;;;;18.88;1.20;;;8.80;99.90;;;;;;5061808;28;20021;-71
2022/03/17 13:00:12;;;;;;;4.97;1.45;;;8.90;99.90;;;;;;5046454;28;20037;-71
2022/03/17 13:02:48;;;;;;;2.15;0.88;;;8.80;99.90;;;;;;5060644;28;20464;-73
2022/03/17 13:08:06;;;;;;;1.35;0.57;;;8.90;99.90;;;;;;5051163;28;20044;-72
2022/03/17 13:16:04;;;;;;;3.72;0.65;;;9.30;99.90;;;;;;5044486;28;20135;-70
2022/03/17 13:19:02;;;;;;;7.88;0.98;;;9.50;99.90;;;;;;5045008;28;20489;-72
2022/03/17 13:21:31;;;;;;;7.28;1.23;;;9.90;99.90;;;;;;4991956;28;20132;-71
2022/03/17 13:24:15;;;;;;;5.68;1.52;;;10.30;99.90;;;;;;5065309;28;20040;-71
2022/03/17 13:26:42;;;;;;;2.88;1.05;;;10.50;99.90;;;;;;5064980;28;20028;-72
2022/03/17 13:29:13;;;;;;;3.03;0.80;;;10.70;99.90;;;;;;5065011;28;20033;-73
2022/03/17 13:31:44;;;;;;;7.00;0.80;;;11.10;99.90;;;;;;5064551;28;20041;-73
2022/03/17 13:34:33;;;;;;;11.40;1.65;;;11.40;99.90;;;;;;5065101;28;20041;-73
2022/03/17 13:37:01;;;;;;;10.73;0.85;;;11.40;99.90;;;;;;5064653;28;20041;-72
2022/03/17 13:39:34;;;;;;;8.10;1.08;;;12.00;99.90;;;;;;5065014;28;20021;-70
2022/03/17 13:42:03;;;;;;;0.93;0.38;;;12.80;99.90;;;;;;5064474;28;20025;-71
2022/03/17 13:44:53;;;;;;;6.63;1.25;;;13.40;99.90;;;;;;5063619;28;20116;-72
2022/03/17 13:47:22;;;;;;;1.48;0.70;;;13.50;99.90;;;;;;5064789;28;20032;-71
2022/03/17 13:50:27;;;;;;;5.82;1.40;;;13.70;99.90;;;;;;5063890;28;20017;-70
2022/03/17 13:53:01;;;;;;;0.77;0.52;;;14.40;99.90;;;;;;5022599;28;20042;-73
2022/03/17 13:55:38;;;;;;;2.65;0.77;;;14.60;99.90;;;;;;5005849;28;20034;-72
2022/03/17 13:58:18;;;;;;;3.70;0.80;;;14.90;99.90;;;;;;5047880;28;20111;-71
2022/03/17 14:00:46;;;;;;;3.30;0.95;;;14.90;99.90;;;;;;5064650;28;20033;-73
2022/03/17 14:03:15;;;;;;;2.28;0.68;;;14.90;99.90;;;;;;5064083;28;20074;-70
2022/03/17 14:06:03;;;;;;;2.22;0.73;;;15.10;99.90;;;;;;5064600;28;20108;-72
2022/03/17 14:08:30;;;;;;;3.80;0.88;;;15.20;99.90;;;;;;5064452;28;20037;-72
2022/03/17 14:10:57;;;;;;;8.52;0.95;;;14.60;99.90;;;;;;5063597;28;20072;-71
2022/03/17 14:13:23;;;;;;;4.30;0.90;;;14.30;99.90;;;;;;5062964;28;20037;-71
2022/03/17 14:15:50;;;;;;;7.03;2.03;;;14.20;99.90;;;;;;5063893;28;20045;-72
2022/03/17 14:18:16;;;;;;;5.22;1.05;;;14.70;99.90;;;;;;5064241;28;20020;-72
2022/03/17 14:20:42;;;;;;;3.65;0.47;;;15.20;99.90;;;;;;5063607;28;20092;-72
2022/03/17 14:25:53;;;;;;;3.50;1.27;;;15.00;99.90;;;;;;5063824;28;20040;-72
2022/03/17 14:28:20;;;;;;;3.95;0.95;;;14.50;99.90;;;;;;5064582;28;20029;-71
2022/03/17 14:30:46;;;;;;;7.30;1.00;;;14.40;99.90;;;;;;5063929;28;20457;-72
2022/03/17 14:33:12;;;;;;;2.67;0.68;;;14.20;99.90;;;;;;5064155;28;20100;-70
2022/03/17 14:35:39;;;;;;;3.42;1.38;;;13.90;99.90;;;;;;5064377;28;20017;-74
2022/03/17 14:38:05;;;;;;;7.80;1.05;;;13.40;99.90;;;;;;5063874;28;20025;-70
2022/03/17 14:40:31;;;;;;;10.93;1.00;;;12.90;99.90;;;;;;5064323;28;20340;-72
2022/03/17 14:42:57;;;;;;;7.22;0.90;;;12.40;99.90;;;;;;5063944;28;20033;-71
2022/03/17 14:45:24;;;;;;;3.90;1.10;;;12.30;99.90;;;;;;5063164;28;20025;-73
2022/03/17 14:47:49;;;;;;;9.18;1.45;;;13.00;99.90;;;;;;5064145;28;20027;-70
2022/03/17 14:50:15;;;;;;;8.00;1.33;;;13.80;99.90;;;;;;5064209;28;20024;-71
2022/03/17 14:52:41;;;;;;;4.35;0.82;;;14.40;99.90;;;;;;5063645;28;20039;-70
2022/03/17 14:55:08;;;;;;;2.92;1.08;;;14.70;99.90;;;;;;5065184;28;20089;-71
2022/03/17 14:57:34;;;;;;;5.30;1.15;;;15.30;99.90;;;;;;5068211;28;20029;-72
2022/03/17 15:00:02;;;;;;;6.47;0.63;;;15.70;99.90;;;;;;5067769;28;20021;-72
2022/03/17 15:02:29;;;;;;;3.17;1.35;;;15.80;99.90;;;;;;5068115;28;20059;-70
2022/03/17 15:04:54;;;;;;;3.00;0.80;;;16.00;99.90;;;;;;5067136;28;20029;-72
2022/03/17 15:07:20;;;;;;;2.45;0.80;;;16.30;99.90;;;;;;5049756;28;20093;-72
2022/03/17 15:09:46;;;;;;;3.13;1.08;;;16.60;99.90;;;;;;5067404;28;20033;-70
2022/03/17 15:12:11;;;;;;;5.38;1.23;;;16.20;99.90;;;;;;5067545;28;20032;-70
2022/03/17 15:14:37;;;;;;;2.70;0.88;;;15.80;99.90;;;;;;5067657;28;20079;-72
2022/03/17 15:17:03;;;;;;;5.88;1.42;;;15.00;99.90;;;;;;5066969;28;20064;-71
2022/03/17 15:19:29;;;;;;;7.13;1.92;;;14.70;99.90;;;;;;5048123;28;20029;-71
2022/03/17 15:21:56;;;;;;;5.38;2.03;;;14.40;99.90;;;;;;5066890;28;20032;-71
2022/03/17 15:24:23;;;;;;;4.38;1.10;;;14.50;99.90;;;;;;5067595;28;20028;-69
2022/03/17 15:26:49;;;;;;;3.63;0.90;;;14.30;99.90;;;;;;5066931;28;20021;-70
2022/03/17 15:32:02;;;;;;;7.25;1.70;;;15.00;99.90;;;;;;5067490;28;20071;-72
2022/03/17 15:34:28;;;;;;;2.67;0.98;;;15.60;99.90;;;;;;5066909;28;20059;-70
2022/03/17 15:36:54;;;;;;;3.47;0.88;;;16.10;99.90;;;;;;5067072;28;20021;-73
2022/03/17 15:39:19;;;;;;;12.07;0.93;;;16.60;99.90;;;;;;5067432;28;20033;-71
2022/03/17 15:41:48;;;;;;;5.50;0.93;;;16.70;99.90;;;;;;5049076;28;20025;-72
2022/03/17 15:44:13;;;;;;;3.28;0.75;;;16.10;99.90;;;;;;5049210;28;20455;-73
2022/03/17 15:46:40;;;;;;;5.05;1.20;;;15.50;99.90;;;;;;5067217;28;20029;-73
2022/03/17 15:49:06;;;;;;;5.10;0.95;;;15.30;99.90;;;;;;5066866;28;20085;-71
2022/03/17 15:51:35;;;;;;;5.68;1.15;;;15.10;99.90;;;;;;5066666;28;20124;-73
2022/03/17 15:54:05;;;;;;;7.07;0.77;;;15.20;99.90;;;;;;5048508;28;20032;-71
2022/03/17 15:56:31;;;;;;;4.47;1.42;;;15.30;99.90;;;;;;5066868;28;20092;-72
2022/03/17 15:58:57;;;;;;;6.97;1.38;;;15.60;99.90;;;;;;5066322;28;20021;-73
2022/03/17 16:01:23;;;;;;;7.63;0.95;;;15.90;99.90;;;;;;5064574;28;20100;-70
2022/03/17 16:03:49;;;;;;;8.90;0.70;;;16.10;99.90;;;;;;5066347;28;20032;-72
2022/03/17 16:06:14;;;;;;;2.20;0.80;;;16.30;99.90;;;;;;5066272;28;20025;-70
2022/03/17 16:08:41;;;;;;;5.35;1.15;;;16.30;99.90;;;;;;5064472;28;20025;-72
2022/03/17 16:16:40;;;;;;;3.55;1.30;;;16.20;99.90;;;;;;5066271;28;20075;-70
2022/03/17 16:19:06;;;;;;;6.20;0.93;;;16.10;99.90;;;;;;5063720;28;20040;-71
2022/03/17 16:21:32;;;;;;;5.00;1.45;;;15.90;99.90;;;;;;5065957;28;20511;-71
2022/03/17 16:23:58;;;;;;;2.53;1.10;;;15.90;99.90;;;;;;5065508;28;20021;-70
2022/03/17 16:26:25;;;;;;;7.53;1.25;;;15.80;99.90;;;;;;5062940;28;20136;-70
2022/03/17 16:28:50;;;;;;;3.60;1.25;;;15.80;99.90;;;;;;5047330;28;20075;-71
2022/03/17 16:31:21;;;;;;;5.03;1.13;;;15.30;99.90;;;;;;5064458;28;20037;-72
2022/03/17 16:33:49;;;;;;;8.07;1.55;;;14.60;99.90;;;;;;5065640;28;20036;-73
2022/03/17 16:36:16;;;;;;;2.88;1.15;;;13.90;99.90;;;;;;5065233;28;20334;-72
2022/03/17 16:38:43;;;;;;;7.07;1.63;;;13.40;99.90;;;;;;5046761;28;20120;-73
2022/03/17 16:41:13;;;;;;;7.28;1.60;;;13.00;99.90;;;;;;5065223;28;20052;-71
2022/03/17 16:43:42;;;;;;;8.93;1.48;;;12.50;99.90;;;;;;5065556;28;20025;-74
2022/03/17 16:46:10;;;;;;;3.53;1.13;;;12.10;99.90;;;;;;5065894;28;20052;-71
2022/03/17 16:48:51;;;;;;;3.80;0.90;;;11.90;99.90;;;;;;5064941;28;20515;-70
2022/03/17 16:51:17;;;;;;;8.52;1.30;;;11.60;99.90;;;;;;5064448;28;20036;-70
2022/03/17 16:53:44;;;;;;;8.80;2.33;;;11.40;99.90;;;;;;5065581;28;20108;-70
2022/03/17 16:56:10;;;;;;;2.00;0.90;;;11.20;99.90;;;;;;5063684;28;20036;-71
2022/03/17 16:58:36;;;;;;;1.20;0.77;;;11.00;99.90;;;;;;5064451;28;20041;-70
2022/03/17 17:01:02;;;;;;;8.68;1.80;;;10.90;99.90;;;;;;5059616;28;20086;-71
2022/03/17 17:03:35;;;;;;;5.20;1.45;;;10.70;99.90;;;;;;5046408;28;20033;-72
2022/03/17 17:06:01;;;;;;;17.70;2.03;;;10.60;99.90;;;;;;5064599;28;20140;-70
2022/03/17 17:08:27;;;;;;;5.35;1.75;;;10.40;99.90;;;;;;5065248;28;20051;-70
2022/03/17 17:10:53;;;;;;;5.40;1.30;;;10.30;99.90;;;;;;5064893;28;20029;-70
2022/03/17 17:13:19;;;;;;;7.53;1.35;;;10.20;99.90;;;;;;5064792;28;20091;-70
2022/03/17 17:15:46;;;;;;;3.97;1.40;;;10.10;99.90;;;;;;5065090;28;20502;-72
2022/03/17 17:18:12;;;;;;;11.95;1.63;;;10.10;99.90;;;;;;5065327;28;20025;-70
2022/03/17 17:20:39;;;;;;;14.32;1.48;;;10.00;99.90;;;;;;5064956;28;20421;-71
2022/03/17 17:31:17;;;;;;;5.47;2.53;;;9.60;99.90;;;;;;5051751;28;20087;-69
2022/03/17 17:33:47;;;;;;;17.95;2.83;;;9.40;99.90;;;;;;5052424;28;20034;-70
2022/03/17 17:36:13;;;;;;;10.85;2.53;;;9.40;99.90;;;;;;5045151;28;20037;-70
2022/03/17 17:38:49;;;;;;;4.97;1.58;;;9.20;99.90;;;;;;5045111;28;20366;-71
2022/03/17 17:41:15;;;;;;;7.95;1.48;;;9.20;99.90;;;;;;5045406;28;20029;-71
2022/03/17 17:43:45;;;;;;;1.95;0.95;;;9.10;99.90;;;;;;5047809;28;20055;-71
2022/03/17 17:46:16;;;;;;;10.27;1.70;;;9.10;99.90;;;;;;5053680;28;20056;-70
2022/03/17 17:48:44;;;;;;;7.72;1.90;;;9.10;99.90;;;;;;5026583;28;20396;-71
2022/03/17 17:51:11;;;;;;;6.18;1.35;;;9.00;99.90;;;;;;5045392;28;20021;-71
2022/03/17 17:53:40;;;;;;;5.57;2.95;;;8.90;99.90;;;;;;5064784;28;20808;-70
2022/03/17 17:56:07;;;;;;;16.15;6.25;;;8.90;99.90;;;;;;5064884;28;20032;-68
2022/03/17 17:58:44;;;;;;;34.75;9.38;;;8.80;99.90;;;;;;5044199;28;20112;-69
2022/03/17 18:01:10;;;;;;;16.73;6.93;;;8.80;99.90;;;;;;5056435;28;20033;-69
2022/03/17 18:03:36;;;;;;;16.65;3.03;;;8.70;99.90;;;;;;5060395;28;20047;-68
2022/03/17 18:06:02;;;;;;;18.90;3.28;;;8.70;99.90;;;;;;5064178;28;20709;-68
2022/03/17 18:08:29;;;;;;;7.95;2.15;;;8.60;99.90;;;;;;5063939;28;20032;-68
2022/03/17 18:10:57;;;;;;;4.25;1.70;;;8.60;99.90;;;;;;5064506;28;20025;-68
2022/03/17 18:13:23;;;;;;;8.05;2.22;;;8.50;99.90;;;;;;5063456;28;20037;-70
2022/03/17 18:15:48;;;;;;;5.18;1.67;;;8.50;99.90;;;;;;5057697;28;20057;-70
2022/03/17 18:18:22;;;;;;;5.60;1.60;;;8.50;99.90;;;;;;5055973;28;20077;-70
2022/03/17 18:20:47;;;;;;;7.38;1.70;;;8.40;99.90;;;;;;5063703;28;20469;-69
2022/03/17 18:23:14;;;;;;;12.60;2.08;;;8.40;99.90;;;;;;5064086;28;20100;-70
2022/03/17 18:25:46;;;;;;;8.48;2.10;;;8.40;99.90;;;;;;5046280;28;20106;-70
2022/03/17 18:28:15;;;;;;;6.85;2.75;;;8.30;99.90;;;;;;5063177;28;20075;-68
2022/03/17 18:30:56;;;;;;;13.60;2.50;;;8.30;99.90;;;;;;5053438;28;20025;-68
2022/03/17 18:33:22;;;;;;;7.13;2.58;;;8.30;99.90;;;;;;5036951;28;20072;-69
2022/03/17 18:35:48;;;;;;;5.63;2.55;;;8.30;99.90;;;;;;5062521;28;20040;-70
2022/03/17 18:38:16;;;;;;;10.52;2.72;;;8.10;99.90;;;;;;5064065;28;20029;-68
2022/03/17 18:40:44;;;;;;;38.92;3.70;;;8.10;99.90;;;;;;5064405;28;20029;-71
2022/03/17 18:43:13;;;;;;;23.70;3.30;;;8.00;99.90;;;;;;5062871;28;20453;-72
2022/03/17 18:45:46;;;;;;;4.75;2.63;;;7.90;99.90;;;;;;5063942;28;20036;-70
2022/03/17 18:48:16;;;;;;;4.45;2.67;;;7.90;99.90;;;;;;5058633;28;20036;-69
2022/03/17 18:50:43;;;;;;;11.57;3.97;;;7.90;99.90;;;;;;5045912;28;20025;-70
2022/03/17 18:53:09;;;;;;;5.13;2.40;;;7.80;99.90;;;;;;5042675;28;20041;-69
2022/03/17 18:55:34;;;;;;;9.52;3.40;;;7.70;99.90;;;;;;5044250;28;20030;-68
2022/03/17 18:58:00;;;;;;;12.10;3.80;;;7.60;99.90;;;;;;5042946;28;20037;-69
2022/03/17 19:00:26;;;;;;;13.32;2.67;;;7.50;99.90;;;;;;5043552;28;20034;-69
2022/03/17 19:02:52;;;;;;;6.95;2.50;;;7.50;99.90;;;;;;5043716;28;20029;-70
2022/03/17 19:05:18;;;;;;;11.95;4.10;;;7.40;99.90;;;;;;5049214;28;20030;-71
2022/03/17 19:07:43;;;;;;;10.20;3.80;;;7.30;99.90;;;;;;5057069;28;20487;-69
2022/03/17 19:10:10;;;;;;;10.82;3.95;;;7.20;99.90;;;;;;5055384;28;20028;-71
2022/03/17 19:12:36;;;;;;;19.42;3.78;;;7.20;99.90;;;;;;5063091;28;20033;-69
2022/03/17 19:15:05;;;;;;;10.68;3.95;;;7.10;99.90;;;;;;5061901;28;20021;-70
2022/03/17 19:17:31;;;;;;;14.10;4.22;;;7.00;99.90;;;;;;5057308;28;20157;-68
2022/03/17 19:19:58;;;;;;;8.65;3.42;;;6.90;99.90;;;;;;5060585;28;20029;-69
2022/03/17 19:22:26;;;;;;;11.32;4.00;;;6.90;99.90;;;;;;5061247;28;20465;-69
2022/03/17 19:24:53;;;;;;;17.88;4.82;;;6.90;99.90;;;;;;5062009;28;20021;-70
2022/03/17 19:27:24;;;;;;;22.77;8.18;;;6.80;99.90;;;;;;5058747;28;20435;-69
2022/03/17 19:29:50;;;;;;;21.75;5.90;;;6.80;99.90;;;;;;5044981;28;20469;-69
2022/03/17 19:32:17;;;;;;;10.25;5.40;;;6.70;99.90;;;;;;5063357;28;20048;-70
2022/03/17 19:34:45;;;;;;;17.90;5.13;;;6.60;99.90;;;;;;5063188;28;20366;-70
2022/03/17 19:37:12;;;;;;;22.33;7.55;;;6.50;99.90;;;;;;5063324;28;20093;-70
2022/03/17 19:39:37;;;;;;;20.20;6.90;;;6.50;99.90;;;;;;5063726;28;20025;-71
2022/03/17 19:42:03;;;;;;;28.48;9.27;;;6.50;99.90;;;;;;5063157;28;20039;-68
2022/03/17 19:44:29;;;;;;;63.35;20.90;;;6.50;99.90;;;;;;5066942;28;20025;-70
2022/03/17 19:47:11;;;;;;;83.07;25.73;;;6.40;99.90;;;;;;5065536;28;20068;-71
2022/03/17 19:52:23;;;;;;;42.92;15.50;;;6.30;99.90;;;;;;5056344;28;20080;-69
2022/03/17 19:54:50;;;;;;;41.85;13.70;;;6.30;99.90;;;;;;5064436;28;20029;-71
2022/03/17 19:57:17;;;;;;;32.13;10.07;;;6.20;99.90;;;;;;5064935;28;20048;-70
2022/03/17 19:59:44;;;;;;;22.58;9.98;;;6.20;99.90;;;;;;5066016;28;20682;-69
2022/03/17 20:02:10;;;;;;;20.42;9.43;;;6.20;99.90;;;;;;5065915;28;20017;-70
2022/03/17 20:04:35;;;;;;;25.45;9.68;;;6.00;99.90;;;;;;5066330;28;20421;-69
2022/03/17 20:07:01;;;;;;;29.15;10.60;;;6.00;99.90;;;;;;5065672;28;20033;-69
2022/03/17 20:09:27;;;;;;;36.55;11.32;;;6.00;99.90;;;;;;5065913;28;20057;-69
2022/03/17 20:14:39;;;;;;;28.45;10.07;;;5.90;99.90;;;;;;5064249;28;20060;-72
2022/03/17 20:17:51;;;;;;;22.00;7.53;;;5.90;99.90;;;;;;5058545;28;20458;-68
2022/03/17 20:20:19;;;;;;;22.17;8.90;;;5.90;99.90;;;;;;5068627;28;20033;-68
2022/03/17 20:22:45;;;;;;;19.40;7.43;;;5.80;99.90;;;;;;5073867;28;20051;-67
2022/03/17 20:25:11;;;;;;;29.98;8.38;;;5.70;99.90;;;;;;5080881;28;20032;-69
2022/03/17 20:27:37;;;;;;;23.45;7.90;;;5.70;99.90;;;;;;5081687;28;20032;-68
2022/03/17 20:30:03;;;;;;;46.60;14.20;;;5.60;99.90;;;;;;5070253;28;20033;-66
2022/03/17 20:32:29;;;;;;;39.30;14.38;;;5.50;99.90;;;;;;5049541;28;20029;-67
2022/03/17 20:34:54;;;;;;;42.13;12.80;;;5.50;99.90;;;;;;5061386;28;20029;-66
2022/03/17 20:37:20;;;;;;;32.45;12.65;;;5.40;99.90;;;;;;5058850;28;20056;-68
2022/03/17 20:39:45;;;;;;;41.85;10.98;;;5.40;99.90;;;;;;5061462;28;20041;-68
2022/03/17 20:42:11;;;;;;;21.80;9.02;;;5.40;99.90;;;;;;5059070;28;20088;-68
2022/03/17 20:44:38;;;;;;;13.85;6.47;;;5.30;99.90;;;;;;5055085;28;20021;-69
2022/03/17 20:47:04;;;;;;;28.67;7.97;;;5.30;99.90;;;;;;5070804;28;20025;-68
2022/03/17 20:49:29;;;;;;;17.27;6.20;;;5.30;99.90;;;;;;5046685;28;20032;-68
2022/03/17 20:51:58;;;;;;;13.35;5.38;;;5.20;99.90;;;;;;5045689;28;20030;-68
2022/03/17 20:54:24;;;;;;;18.33;5.38;;;5.20;99.90;;;;;;5040881;28;20021;-69
2022/03/17 20:56:49;;;;;;;12.52;5.28;;;5.20;99.90;;;;;;5049470;28;20037;-68
2022/03/17 20:59:17;;;;;;;15.63;5.35;;;5.20;99.90;;;;;;5059377;28;20068;-71
2022/03/17 21:01:42;;;;;;;7.93;4.60;;;5.10;99.90;;;;;;5060683;28;20486;-70
2022/03/17 21:04:10;;;;;;;9.85;4.00;;;5.10;99.90;;;;;;5051205;28;20045;-67
2022/03/17 21:06:36;;;;;;;13.70;4.43;;;5.00;99.90;;;;;;5049760;28;20059;-68
2022/03/17 21:09:03;;;;;;;11.77;3.88;;;5.00;99.90;;;;;;5060245;28;20056;-67
2022/03/17 21:11:29;;;;;;;13.18;4.82;;;5.00;99.90;;;;;;5058964;28;20029;-68
2022/03/17 21:13:56;;;;;;;13.32;3.88;;;5.00;99.90;;;;;;5060462;28;20037;-70
2022/03/17 21:16:23;;;;;;;9.60;3.55;;;5.00;99.90;;;;;;5060079;28;20041;-66
2022/03/17 21:18:51;;;;;;;15.52;3.60;;;5.00;99.90;;;;;;5060039;28;20029;-69
2022/03/17 21:21:20;;;;;;;6.38;3.25;;;5.00;99.90;;;;;;5053391;28;20037;-68
2022/03/17 21:23:47;;;;;;;10.50;3.80;;;5.00;99.90;;;;;;5040601;28;20030;-70
2022/03/17 21:26:13;;;;;;;11.88;3.53;;;5.00;99.90;;;;;;5043783;28;20033;-69
2022/03/17 21:28:44;;;;;;;17.63;3.72;;;5.00;99.90;;;;;;5049676;28;20037;-68
2022/03/17 21:31:10;;;;;;;33.28;4.30;;;5.00;99.90;;;;;;5046538;28;20021;-68
2022/03/17 21:33:36;;;;;;;9.05;2.65;;;5.00;99.90;;;;;;5045368;28;20033;-69
2022/03/17 21:36:02;;;;;;;5.47;3.10;;;5.00;99.90;;;;;;5046706;28;20460;-67
2022/03/17 21:38:27;;;;;;;9.00;2.70;;;4.90;99.90;;;;;;5041388;28;20033;-69
2022/03/17 21:40:53;;;;;;;19.35;3.53;;;4.90;99.90;;;;;;5044374;28;20097;-67
2022/03/17 21:43:19;;;;;;;8.02;2.88;;;4.80;99.90;;;;;;5046731;28;20029;-68
2022/03/17 21:45:46;;;;;;;8.90;2.70;;;4.90;99.90;;;;;;5046700;28;20036;-67
2022/03/17 21:48:13;;;;;;;7.75;2.90;;;4.80;99.90;;;;;;5046373;28;20454;-68
2022/03/17 21:50:44;;;;;;;8.70;3.35;;;4.80;99.90;;;;;;5046989;28;20036;-68
2022/03/17 21:53:12;;;;;;;9.27;3.03;;;4.80;99.90;;;;;;5044646;28;20033;-69
2022/03/17 21:55:38;;;;;;;11.15;3.25;;;4.70;99.90;;;;;;5045308;28;20038;-69
2022/03/17 21:58:05;;;;;;;15.88;4.32;;;4.70;99.90;;;;;;5045438;28;20037;-67
2022/03/17 22:00:33;;;;;;;9.15;3.60;;;4.60;99.90;;;;;;5045735;28;20017;-69
2022/03/17 22:02:58;;;;;;;8.48;2.83;;;4.50;99.90;;;;;;5044804;28;20491;-68
2022/03/17 22:05:24;;;;;;;10.57;3.08;;;4.50;99.90;;;;;;5046276;28;20048;-68